Time;durP1;ratioP1;P1;durP2;ratioP2;P2;SDS_P1;SDS_P2;PMS_P1;PMS_P2;Temp;Humidity;BMP_temperature;BMP_pressure;BME280_temperature;BME280_humidity;BME280_pressure;Samples;Min_cycle;Max_cycle;Signal;HPM_P1;HPM_P2
2023/07/19 00:01:24;;;;;;;3.92;1.50;;;17.10;99.90;;;;;;5050510;28;20123;-70
2023/07/19 00:03:50;;;;;;;3.10;1.50;;;17.10;99.90;;;;;;5021274;28;20052;-70
2023/07/19 00:06:16;;;;;;;2.90;1.70;;;17.10;99.90;;;;;;5019050;28;20037;-70
2023/07/19 00:08:41;;;;;;;3.05;1.65;;;17.10;99.90;;;;;;5039432;28;20037;-70
2023/07/19 00:11:07;;;;;;;2.63;1.55;;;17.10;99.90;;;;;;5042930;28;20037;-70
2023/07/19 00:13:32;;;;;;;2.67;1.30;;;17.10;99.90;;;;;;5037986;28;20045;-70
2023/07/19 00:15:58;;;;;;;4.70;1.67;;;17.10;99.90;;;;;;5036782;28;20039;-70
2023/07/19 00:18:24;;;;;;;3.20;1.50;;;17.00;99.90;;;;;;5034198;28;20095;-70
2023/07/19 00:20:50;;;;;;;3.97;1.52;;;17.00;99.90;;;;;;5037179;28;20037;-70
2023/07/19 00:23:15;;;;;;;3.55;1.67;;;17.00;99.90;;;;;;5035653;28;20040;-70
2023/07/19 00:25:41;;;;;;;2.35;1.38;;;17.00;99.90;;;;;;5032798;28;20068;-70
2023/07/19 00:28:07;;;;;;;3.38;1.48;;;17.00;99.90;;;;;;5049576;28;20056;-70
2023/07/19 00:30:32;;;;;;;3.33;1.50;;;17.00;99.90;;;;;;5037580;28;20490;-70
2023/07/19 00:32:58;;;;;;;2.60;1.60;;;17.00;99.90;;;;;;5036629;28;20044;-69
2023/07/19 00:35:24;;;;;;;4.38;1.73;;;16.90;99.90;;;;;;5039057;28;20045;-70
2023/07/19 00:37:49;;;;;;;4.05;1.52;;;16.90;99.90;;;;;;5037199;28;20063;-70
2023/07/19 00:40:15;;;;;;;3.17;1.40;;;16.90;99.90;;;;;;5039311;28;20053;-70
2023/07/19 00:42:41;;;;;;;4.20;1.40;;;16.90;99.90;;;;;;5035611;28;20037;-70
2023/07/19 00:45:07;;;;;;;3.72;1.15;;;16.90;99.90;;;;;;5038509;28;20128;-70
2023/07/19 00:47:33;;;;;;;3.13;1.60;;;16.90;99.90;;;;;;5037748;28;20044;-70
2023/07/19 00:49:59;;;;;;;3.78;1.50;;;16.90;99.90;;;;;;5038199;28;20048;-70
2023/07/19 00:52:25;;;;;;;4.22;1.38;;;16.90;99.90;;;;;;5036531;28;20698;-70
2023/07/19 00:54:51;;;;;;;3.53;1.83;;;16.80;99.90;;;;;;5050222;28;20030;-70
2023/07/19 00:57:16;;;;;;;3.40;1.85;;;16.90;99.90;;;;;;5036055;28;20826;-70
2023/07/19 00:59:43;;;;;;;3.05;1.42;;;16.80;99.90;;;;;;5037805;28;20152;-70
2023/07/19 01:02:09;;;;;;;2.58;1.50;;;16.80;99.90;;;;;;5039013;28;20029;-70
2023/07/19 01:04:35;;;;;;;3.65;1.85;;;16.80;99.90;;;;;;5070067;28;20103;-70
2023/07/19 01:07:03;;;;;;;4.60;1.50;;;16.80;99.90;;;;;;5033944;28;20033;-70
2023/07/19 01:09:30;;;;;;;3.33;1.60;;;16.80;99.90;;;;;;5036353;28;20064;-70
2023/07/19 01:11:55;;;;;;;4.00;1.88;;;16.80;99.90;;;;;;5038207;28;20048;-70
2023/07/19 01:14:21;;;;;;;3.03;1.58;;;16.80;99.90;;;;;;5039200;28;20044;-70
2023/07/19 01:16:46;;;;;;;2.92;1.50;;;16.80;99.90;;;;;;5035021;28;20049;-70
2023/07/19 01:19:16;;;;;;;5.53;1.70;;;16.80;99.90;;;;;;5032684;28;20041;-70
2023/07/19 01:21:41;;;;;;;3.30;1.55;;;16.80;99.90;;;;;;5038164;28;20044;-70
2023/07/19 01:24:07;;;;;;;6.22;2.22;;;16.80;99.90;;;;;;5036732;28;20045;-70
2023/07/19 01:26:33;;;;;;;3.50;1.30;;;16.70;99.90;;;;;;5037101;28;20263;-70
2023/07/19 01:28:59;;;;;;;2.90;1.42;;;16.70;99.90;;;;;;5028051;28;20459;-70
2023/07/19 01:31:25;;;;;;;2.70;1.48;;;16.70;99.90;;;;;;5035540;28;20044;-70
2023/07/19 01:33:50;;;;;;;4.18;1.23;;;16.80;99.90;;;;;;5039586;28;20048;-70
2023/07/19 01:36:16;;;;;;;3.70;1.50;;;16.80;99.90;;;;;;5037190;28;20059;-70
2023/07/19 01:38:42;;;;;;;2.83;1.42;;;16.80;99.90;;;;;;5042509;28;20744;-70
2023/07/19 01:41:07;;;;;;;2.65;1.40;;;16.70;99.90;;;;;;5040242;28;20041;-70
2023/07/19 01:43:35;;;;;;;2.35;1.38;;;16.70;99.90;;;;;;5013623;28;20053;-70
2023/07/19 01:46:00;;;;;;;3.72;1.75;;;16.80;99.90;;;;;;5041783;28;20045;-70
2023/07/19 01:48:26;;;;;;;3.35;1.90;;;16.70;99.90;;;;;;5037463;28;20525;-70
2023/07/19 01:50:51;;;;;;;2.80;1.73;;;16.80;99.90;;;;;;5039448;28;20044;-70
2023/07/19 01:53:17;;;;;;;2.90;1.20;;;16.80;99.90;;;;;;5040398;28;20033;-70
2023/07/19 01:55:43;;;;;;;4.70;1.58;;;16.80;99.90;;;;;;5042374;28;20098;-70
2023/07/19 01:58:09;;;;;;;3.92;1.45;;;16.80;99.90;;;;;;5037978;28;20041;-70
2023/07/19 02:00:35;;;;;;;3.42;1.50;;;16.70;99.90;;;;;;5039421;28;20067;-70
2023/07/19 02:03:01;;;;;;;3.53;1.70;;;16.70;99.90;;;;;;5041331;28;20506;-70
2023/07/19 02:05:26;;;;;;;4.43;1.60;;;16.70;99.90;;;;;;5070489;28;20578;-70
2023/07/19 02:07:52;;;;;;;2.50;1.20;;;16.70;99.90;;;;;;5038168;28;20407;-70
2023/07/19 02:10:18;;;;;;;2.63;1.30;;;16.80;99.90;;;;;;5036220;28;20391;-70
2023/07/19 02:12:43;;;;;;;4.10;1.60;;;16.70;99.90;;;;;;5037506;28;20033;-70
2023/07/19 02:15:10;;;;;;;4.80;1.90;;;16.80;99.90;;;;;;5038686;28;20106;-70
2023/07/19 02:17:36;;;;;;;2.20;1.10;;;16.80;99.90;;;;;;5041667;28;20284;-70
2023/07/19 02:20:02;;;;;;;3.35;1.30;;;16.70;99.90;;;;;;5003353;28;20483;-70
2023/07/19 02:22:27;;;;;;;2.63;1.30;;;16.70;99.90;;;;;;5035709;28;20461;-70
2023/07/19 02:24:53;;;;;;;3.22;1.15;;;16.70;99.90;;;;;;5070434;28;20127;-70
2023/07/19 02:27:19;;;;;;;2.03;1.10;;;16.60;99.90;;;;;;5038936;28;20122;-70
2023/07/19 02:29:45;;;;;;;2.53;1.30;;;16.70;99.90;;;;;;5036591;28;20479;-70
2023/07/19 02:32:12;;;;;;;2.53;1.40;;;16.70;99.90;;;;;;5022606;28;21048;-70
2023/07/19 02:34:38;;;;;;;2.58;1.40;;;16.70;99.90;;;;;;5066514;28;20119;-70
2023/07/19 02:37:04;;;;;;;2.60;1.38;;;16.60;99.90;;;;;;5039445;28;20044;-70
2023/07/19 02:39:30;;;;;;;2.22;1.20;;;16.60;99.90;;;;;;5040265;28;20446;-70
2023/07/19 02:41:56;;;;;;;2.22;1.20;;;16.60;99.90;;;;;;5034705;28;20037;-70
2023/07/19 02:44:22;;;;;;;3.17;1.60;;;16.60;99.90;;;;;;5072256;28;20076;-70
2023/07/19 02:46:48;;;;;;;4.80;1.90;;;16.60;99.90;;;;;;5036356;28;20120;-70
2023/07/19 02:49:13;;;;;;;1.95;1.23;;;16.60;99.90;;;;;;5072771;28;20033;-70
2023/07/19 02:51:39;;;;;;;3.40;1.30;;;16.50;99.90;;;;;;5069612;28;20731;-70
2023/07/19 02:54:05;;;;;;;3.75;1.48;;;16.50;99.90;;;;;;5022294;28;20301;-70
2023/07/19 02:56:30;;;;;;;2.00;1.15;;;16.50;99.90;;;;;;5035314;28;20060;-70
2023/07/19 02:58:56;;;;;;;3.38;1.20;;;16.50;99.90;;;;;;5040840;28;20164;-70
2023/07/19 03:01:21;;;;;;;2.88;1.27;;;16.50;99.90;;;;;;5069687;28;20406;-70
2023/07/19 03:03:48;;;;;;;3.03;1.58;;;16.50;99.90;;;;;;5070409;28;20033;-70
2023/07/19 03:06:14;;;;;;;1.92;1.30;;;16.50;99.90;;;;;;5036784;28;20057;-70
2023/07/19 03:08:39;;;;;;;2.03;1.40;;;16.50;99.90;;;;;;5037274;28;20876;-70
2023/07/19 03:11:08;;;;;;;3.53;1.90;;;16.50;99.90;;;;;;5038967;28;20303;-70
2023/07/19 03:13:34;;;;;;;3.55;1.65;;;16.50;99.90;;;;;;5036181;28;20210;-70
2023/07/19 03:16:00;;;;;;;7.28;1.88;;;16.40;99.90;;;;;;5070169;28;20036;-70
2023/07/19 03:18:25;;;;;;;5.45;1.80;;;16.50;99.90;;;;;;5040093;28;20037;-70
2023/07/19 03:21:01;;;;;;;3.80;1.70;;;16.50;99.90;;;;;;5038717;28;20123;-71
2023/07/19 03:23:30;;;;;;;4.85;2.20;;;16.50;99.90;;;;;;5037613;28;20048;-70
2023/07/19 03:25:58;;;;;;;4.10;1.83;;;16.50;99.90;;;;;;5036504;28;20178;-70
2023/07/19 03:28:28;;;;;;;4.32;1.92;;;16.50;99.90;;;;;;5037949;28;20441;-70
2023/07/19 03:30:54;;;;;;;3.75;1.65;;;16.40;99.90;;;;;;5036844;28;20032;-70
2023/07/19 03:33:24;;;;;;;3.20;1.80;;;16.40;99.90;;;;;;5051388;28;20055;-70
2023/07/19 03:35:50;;;;;;;5.43;2.05;;;16.40;99.90;;;;;;5037589;28;20131;-70
2023/07/19 03:38:18;;;;;;;4.18;1.95;;;16.40;99.90;;;;;;5040563;28;20112;-70
2023/07/19 03:40:43;;;;;;;3.25;2.05;;;16.40;99.90;;;;;;5039986;28;20044;-70
2023/07/19 03:43:09;;;;;;;4.28;2.20;;;16.40;99.90;;;;;;5034989;28;20040;-70
2023/07/19 03:45:34;;;;;;;3.30;2.17;;;16.50;99.90;;;;;;5039100;28;20097;-70
2023/07/19 03:48:00;;;;;;;4.72;2.55;;;16.40;99.90;;;;;;5038265;28;20028;-70
2023/07/19 03:50:26;;;;;;;5.68;2.80;;;16.40;99.90;;;;;;5038186;28;20033;-70
2023/07/19 03:52:52;;;;;;;5.38;2.63;;;16.40;99.90;;;;;;5038107;28;20033;-70
2023/07/19 03:55:17;;;;;;;6.78;2.47;;;16.40;99.90;;;;;;5037790;28;20045;-70
2023/07/19 03:57:43;;;;;;;5.13;2.72;;;16.40;99.90;;;;;;5036021;28;20048;-70
2023/07/19 04:00:09;;;;;;;4.75;2.35;;;16.40;99.90;;;;;;5036653;28;20037;-70
2023/07/19 04:02:35;;;;;;;4.55;2.60;;;16.40;99.90;;;;;;5037972;28;20127;-70
2023/07/19 04:05:01;;;;;;;5.38;3.15;;;16.40;99.90;;;;;;5035931;28;20044;-70
2023/07/19 04:07:26;;;;;;;4.57;2.85;;;16.40;99.90;;;;;;5033927;28;20798;-70
2023/07/19 04:09:52;;;;;;;6.63;3.22;;;16.40;99.90;;;;;;5053706;28;20430;-70
2023/07/19 04:12:18;;;;;;;5.47;2.80;;;16.40;99.90;;;;;;5035453;28;20504;-70
2023/07/19 04:14:44;;;;;;;5.63;2.83;;;16.40;99.90;;;;;;5035416;28;20136;-70
2023/07/19 04:17:11;;;;;;;5.10;3.05;;;16.40;99.90;;;;;;5038769;28;20568;-70
2023/07/19 04:19:37;;;;;;;4.70;2.80;;;16.40;99.90;;;;;;5071758;28;20782;-70
2023/07/19 04:22:03;;;;;;;5.15;2.83;;;16.40;99.90;;;;;;5033317;28;20507;-70
2023/07/19 04:24:29;;;;;;;6.97;3.10;;;16.40;99.90;;;;;;5036035;28;20033;-70
2023/07/19 04:26:54;;;;;;;5.55;3.00;;;16.40;99.90;;;;;;5068149;28;20131;-70
2023/07/19 04:29:21;;;;;;;5.90;3.08;;;16.40;99.90;;;;;;5036700;28;20425;-70
2023/07/19 04:31:47;;;;;;;5.15;2.83;;;16.40;99.90;;;;;;5035260;28;21318;-70
2023/07/19 04:34:12;;;;;;;5.47;3.40;;;16.40;99.90;;;;;;5037378;28;20079;-70
2023/07/19 04:36:39;;;;;;;6.72;3.20;;;16.40;99.90;;;;;;5036593;28;20459;-70
2023/07/19 04:39:05;;;;;;;5.55;3.05;;;16.40;99.90;;;;;;5053118;28;20052;-70
2023/07/19 04:41:31;;;;;;;7.00;2.95;;;16.40;99.90;;;;;;5034231;28;20064;-70
2023/07/19 04:43:56;;;;;;;5.25;3.20;;;16.40;99.90;;;;;;5031780;28;21114;-70
2023/07/19 04:46:22;;;;;;;4.50;2.88;;;16.40;99.90;;;;;;5035834;28;20037;-70
2023/07/19 04:48:48;;;;;;;11.95;3.47;;;16.40;99.90;;;;;;5020687;28;20029;-70
2023/07/19 04:51:13;;;;;;;8.50;3.70;;;16.40;99.90;;;;;;5034427;28;20036;-70
2023/07/19 04:53:39;;;;;;;6.28;3.20;;;16.40;99.90;;;;;;5034552;28;20037;-70
2023/07/19 04:56:04;;;;;;;4.70;2.92;;;16.50;99.90;;;;;;5038000;28;20501;-70
2023/07/19 04:58:30;;;;;;;6.47;3.22;;;16.50;99.90;;;;;;5034376;28;20080;-70
2023/07/19 05:00:56;;;;;;;6.05;3.42;;;16.50;99.90;;;;;;5047680;28;20132;-70
2023/07/19 05:03:22;;;;;;;4.35;2.85;;;16.50;99.90;;;;;;5069719;28;20048;-71
2023/07/19 05:05:47;;;;;;;7.40;3.33;;;16.60;99.90;;;;;;5038186;28;20033;-70
2023/07/19 05:08:13;;;;;;;7.47;2.55;;;16.60;99.90;;;;;;5040053;28;20048;-70
2023/07/19 05:10:39;;;;;;;7.15;3.45;;;16.60;99.90;;;;;;5040291;28;20443;-70
2023/07/19 05:13:05;;;;;;;8.45;3.35;;;16.60;99.90;;;;;;5073040;28;20037;-70
2023/07/19 05:15:31;;;;;;;6.32;2.78;;;16.60;99.90;;;;;;5020866;28;20037;-70
2023/07/19 05:17:57;;;;;;;6.18;2.80;;;16.60;99.90;;;;;;5040864;28;20041;-71
2023/07/19 05:20:23;;;;;;;8.35;3.13;;;16.60;99.90;;;;;;5039747;28;20033;-71
2023/07/19 05:22:49;;;;;;;9.10;3.90;;;16.60;99.90;;;;;;5039032;28;20094;-70
2023/07/19 05:25:15;;;;;;;6.22;2.78;;;16.60;99.90;;;;;;5042206;28;20041;-70
2023/07/19 05:27:41;;;;;;;7.88;3.42;;;16.60;99.90;;;;;;5020066;28;20158;-70
2023/07/19 05:30:07;;;;;;;5.45;2.72;;;16.60;99.90;;;;;;5072459;28;20524;-70
2023/07/19 05:32:32;;;;;;;6.72;3.35;;;16.60;99.90;;;;;;5039701;28;20040;-70
2023/07/19 05:34:59;;;;;;;6.47;2.90;;;16.60;99.90;;;;;;5038694;28;20045;-70
2023/07/19 05:37:24;;;;;;;6.88;3.15;;;16.60;99.90;;;;;;5019929;28;20052;-70
2023/07/19 05:39:50;;;;;;;5.75;2.92;;;16.70;99.90;;;;;;5040690;28;20025;-69
2023/07/19 05:42:16;;;;;;;3.92;2.65;;;16.70;99.90;;;;;;5038135;28;20037;-70
2023/07/19 05:44:41;;;;;;;4.88;2.47;;;16.70;99.90;;;;;;5039552;28;20086;-70
2023/07/19 05:47:07;;;;;;;7.45;2.53;;;16.70;99.90;;;;;;5036789;28;20569;-70
2023/07/19 05:49:33;;;;;;;6.35;2.95;;;16.70;99.90;;;;;;5037243;28;20056;-71
2023/07/19 05:51:59;;;;;;;6.75;2.67;;;16.70;99.90;;;;;;5038792;28;20036;-70
2023/07/19 05:54:25;;;;;;;5.78;2.17;;;16.70;99.90;;;;;;5034158;28;20037;-70
2023/07/19 05:56:50;;;;;;;7.03;2.22;;;16.70;99.90;;;;;;5033343;28;20063;-70
2023/07/19 05:59:16;;;;;;;6.93;2.55;;;16.70;99.90;;;;;;5038607;28;20036;-71
2023/07/19 06:01:42;;;;;;;4.85;2.33;;;16.80;99.90;;;;;;5020004;28;20399;-70
2023/07/19 06:04:08;;;;;;;5.63;2.47;;;16.80;99.90;;;;;;5019972;28;20043;-71
2023/07/19 06:06:34;;;;;;;5.03;2.25;;;16.80;99.90;;;;;;5036702;28;20131;-68
2023/07/19 06:09:01;;;;;;;5.25;2.33;;;16.80;99.90;;;;;;5040313;28;20032;-70
2023/07/19 06:11:27;;;;;;;3.97;2.10;;;16.80;99.90;;;;;;5036882;28;20049;-70
2023/07/19 06:13:53;;;;;;;7.07;2.38;;;16.70;99.90;;;;;;5036790;28;20044;-71
2023/07/19 06:16:19;;;;;;;5.10;2.10;;;16.80;99.90;;;;;;5039792;28;20044;-70
2023/07/19 06:18:44;;;;;;;4.70;2.15;;;16.80;99.90;;;;;;5038028;28;20103;-70
2023/07/19 06:21:10;;;;;;;4.07;1.90;;;16.80;99.90;;;;;;5035120;28;20521;-70
2023/07/19 06:23:35;;;;;;;5.47;2.05;;;16.80;99.90;;;;;;5036421;28;20123;-70
2023/07/19 06:26:01;;;;;;;4.18;1.88;;;16.80;99.90;;;;;;5043176;28;20053;-70
2023/07/19 06:28:28;;;;;;;4.43;1.67;;;16.80;99.90;;;;;;5073155;28;20512;-70
2023/07/19 06:30:53;;;;;;;2.63;1.58;;;16.90;99.90;;;;;;5058339;28;20044;-70
2023/07/19 06:33:19;;;;;;;5.07;1.83;;;16.90;99.90;;;;;;5043278;28;20425;-70
2023/07/19 06:35:44;;;;;;;3.63;1.80;;;16.90;99.90;;;;;;5044885;28;20087;-70
2023/07/19 06:38:10;;;;;;;3.85;1.50;;;16.90;99.90;;;;;;5071360;28;20051;-70
2023/07/19 06:40:36;;;;;;;4.07;1.80;;;17.00;99.90;;;;;;5009674;28;20144;-70
2023/07/19 06:43:01;;;;;;;2.40;1.25;;;17.00;99.90;;;;;;5041259;28;20491;-70
2023/07/19 06:45:27;;;;;;;5.07;1.40;;;17.00;99.90;;;;;;5044651;28;20049;-70
2023/07/19 06:47:53;;;;;;;2.92;1.35;;;17.00;99.90;;;;;;5042832;28;20469;-70
2023/07/19 06:50:19;;;;;;;7.15;1.95;;;17.00;99.90;;;;;;5040428;28;20045;-70
2023/07/19 06:52:44;;;;;;;6.00;1.40;;;17.00;99.90;;;;;;5041279;28;20541;-70
2023/07/19 06:55:10;;;;;;;3.13;1.00;;;17.10;99.90;;;;;;5041558;28;20487;-70
2023/07/19 06:57:35;;;;;;;3.05;1.13;;;17.00;99.90;;;;;;5043200;28;20037;-70
2023/07/19 07:00:03;;;;;;;2.28;1.20;;;17.10;99.90;;;;;;5038116;28;20122;-70
2023/07/19 07:02:28;;;;;;;3.03;1.10;;;17.10;99.90;;;;;;5042755;28;20044;-70
2023/07/19 07:04:54;;;;;;;2.20;1.02;;;17.10;99.90;;;;;;5025082;28;20045;-70
2023/07/19 07:07:20;;;;;;;2.42;1.10;;;17.10;99.90;;;;;;5044313;28;20033;-70
2023/07/19 07:09:46;;;;;;;3.53;1.35;;;17.10;99.90;;;;;;5040967;28;20040;-70
2023/07/19 07:12:12;;;;;;;2.20;1.10;;;17.10;99.90;;;;;;5040177;28;20063;-70
2023/07/19 07:14:38;;;;;;;2.92;1.23;;;17.10;99.90;;;;;;5042342;28;20056;-70
2023/07/19 07:17:06;;;;;;;4.00;1.17;;;17.10;99.90;;;;;;5024517;28;20060;-70
2023/07/19 07:19:31;;;;;;;2.80;1.25;;;17.10;99.90;;;;;;5042541;28;20043;-70
2023/07/19 07:21:57;;;;;;;2.40;1.17;;;17.10;99.90;;;;;;5041317;28;20033;-70
2023/07/19 07:24:23;;;;;;;2.35;1.55;;;17.10;99.90;;;;;;5042463;28;20294;-70
2023/07/19 07:26:48;;;;;;;2.72;1.27;;;17.00;99.90;;;;;;5038511;28;20049;-70
2023/07/19 07:29:14;;;;;;;5.00;1.33;;;17.10;99.90;;;;;;5041242;28;20029;-69
2023/07/19 07:31:40;;;;;;;5.15;1.30;;;17.10;99.90;;;;;;5041258;28;20067;-70
2023/07/19 07:34:06;;;;;;;3.38;1.20;;;17.10;99.90;;;;;;5074239;28;20052;-70
2023/07/19 07:36:31;;;;;;;3.92;1.40;;;17.20;99.90;;;;;;5041844;28;20075;-70
2023/07/19 07:38:57;;;;;;;2.78;1.30;;;17.20;99.90;;;;;;5038729;28;20540;-70
2023/07/19 07:41:22;;;;;;;3.03;1.25;;;17.20;99.90;;;;;;5042409;28;20041;-70
2023/07/19 07:43:48;;;;;;;2.85;1.35;;;17.20;99.90;;;;;;5073442;28;20510;-70
2023/07/19 07:46:14;;;;;;;3.28;1.40;;;17.20;99.90;;;;;;5071743;28;20505;-70
2023/07/19 07:48:39;;;;;;;3.88;1.67;;;17.20;99.90;;;;;;5042762;28;20037;-70
2023/07/19 07:51:05;;;;;;;2.80;1.30;;;17.20;99.90;;;;;;5040623;28;20140;-69
2023/07/19 07:53:30;;;;;;;2.83;1.20;;;17.20;99.90;;;;;;5073566;28;20032;-69
2023/07/19 07:55:57;;;;;;;3.00;1.10;;;17.20;99.90;;;;;;5038647;28;20056;-70
2023/07/19 07:58:23;;;;;;;4.95;1.17;;;17.20;99.90;;;;;;5051020;28;20135;-69
2023/07/19 08:00:49;;;;;;;2.67;1.20;;;17.20;99.90;;;;;;5037118;28;20227;-69
2023/07/19 08:03:14;;;;;;;2.63;1.10;;;17.20;99.90;;;;;;5039731;28;20137;-70
2023/07/19 08:05:40;;;;;;;3.40;0.82;;;17.30;99.90;;;;;;5044828;28;20391;-70
2023/07/19 08:08:07;;;;;;;2.63;0.95;;;17.30;99.90;;;;;;5041554;28;20041;-70
2023/07/19 08:10:35;;;;;;;1.90;0.70;;;17.30;99.90;;;;;;5038187;28;20338;-70
2023/07/19 08:13:01;;;;;;;2.13;0.80;;;17.30;99.90;;;;;;5038393;28;20044;-70
2023/07/19 08:15:27;;;;;;;2.35;1.15;;;17.30;99.90;;;;;;5042576;28;20056;-70
2023/07/19 08:17:53;;;;;;;3.70;0.70;;;17.30;99.90;;;;;;5072816;28;20045;-74
2023/07/19 08:20:18;;;;;;;3.25;0.75;;;17.30;99.90;;;;;;5067431;28;20041;-71
2023/07/19 08:22:44;;;;;;;2.35;1.02;;;17.30;99.90;;;;;;5042644;28;20079;-70
2023/07/19 08:25:10;;;;;;;5.35;0.77;;;17.30;99.90;;;;;;5041452;28;20041;-70
2023/07/19 08:27:35;;;;;;;2.13;0.77;;;17.30;99.90;;;;;;5069419;28;20052;-70
2023/07/19 08:30:07;;;;;;;4.20;0.98;;;17.40;99.90;;;;;;5039325;28;20124;-69
2023/07/19 08:32:33;;;;;;;2.70;0.80;;;17.40;99.90;;;;;;5040879;28;20508;-70
2023/07/19 08:34:59;;;;;;;1.15;0.50;;;17.50;99.90;;;;;;5042840;28;20068;-70
2023/07/19 08:37:25;;;;;;;1.73;0.60;;;17.50;99.90;;;;;;5040060;28;20040;-70
2023/07/19 08:39:51;;;;;;;2.00;0.68;;;17.50;99.90;;;;;;5072082;28;20058;-69
2023/07/19 08:42:16;;;;;;;1.70;0.63;;;17.60;99.90;;;;;;5024176;28;20103;-70
2023/07/19 08:44:42;;;;;;;7.00;1.20;;;17.60;99.90;;;;;;5039395;28;20124;-70
2023/07/19 08:47:11;;;;;;;1.60;0.77;;;17.70;99.90;;;;;;5043259;28;20406;-70
2023/07/19 08:49:38;;;;;;;3.78;0.80;;;17.70;99.90;;;;;;5076414;28;20039;-71
2023/07/19 08:52:07;;;;;;;5.22;1.25;;;17.80;99.90;;;;;;5023894;28;20041;-72
2023/07/19 08:54:33;;;;;;;2.10;0.95;;;17.90;99.90;;;;;;5041031;28;20032;-70
2023/07/19 08:56:58;;;;;;;2.40;0.70;;;17.90;99.90;;;;;;5042698;28;20051;-70
2023/07/19 08:59:25;;;;;;;1.92;0.85;;;18.00;99.90;;;;;;5043740;28;20033;-70
2023/07/19 09:01:50;;;;;;;2.80;0.80;;;18.00;99.90;;;;;;5044582;28;20032;-70
2023/07/19 09:04:16;;;;;;;2.00;0.88;;;18.10;99.90;;;;;;5046584;28;20581;-70
2023/07/19 09:06:42;;;;;;;3.05;1.20;;;18.20;99.90;;;;;;5046896;28;20033;-71
2023/07/19 09:09:13;;;;;;;2.60;0.80;;;18.20;99.90;;;;;;5043475;28;20033;-70
2023/07/19 09:11:49;;;;;;;3.88;1.20;;;18.20;99.90;;;;;;5041868;28;20037;-71
2023/07/19 09:14:15;;;;;;;2.13;0.80;;;18.20;99.90;;;;;;5042789;28;20431;-70
2023/07/19 09:16:41;;;;;;;3.22;1.10;;;18.20;99.90;;;;;;5075007;28;20088;-70
2023/07/19 09:19:08;;;;;;;2.20;0.82;;;18.20;99.90;;;;;;5026759;28;20060;-71
2023/07/19 09:21:42;;;;;;;4.63;1.20;;;18.20;99.90;;;;;;5075687;28;20041;-71
2023/07/19 09:24:09;;;;;;;2.97;1.10;;;18.20;99.90;;;;;;5041020;28;20044;-71
2023/07/19 09:26:52;;;;;;;4.25;1.75;;;18.10;99.90;;;;;;5041136;28;20064;-70
2023/07/19 09:29:21;;;;;;;3.50;1.08;;;18.20;99.90;;;;;;5041903;28;20143;-70
2023/07/19 09:31:53;;;;;;;5.72;1.10;;;18.30;99.90;;;;;;5042559;28;20037;-70
2023/07/19 09:34:41;;;;;;;4.13;0.77;;;18.30;99.90;;;;;;5042344;28;20060;-70
2023/07/19 09:37:07;;;;;;;4.78;1.38;;;18.40;99.90;;;;;;5041323;28;20056;-70
2023/07/19 09:39:35;;;;;;;3.55;1.02;;;18.50;99.90;;;;;;5045018;28;20068;-70
2023/07/19 09:42:03;;;;;;;3.90;0.80;;;18.50;99.90;;;;;;5075630;28;20032;-70
2023/07/19 09:44:29;;;;;;;1.40;0.77;;;18.50;99.90;;;;;;5045152;28;20041;-70
2023/07/19 09:46:55;;;;;;;5.03;0.80;;;18.40;99.90;;;;;;5026109;28;20040;-70
2023/07/19 09:49:22;;;;;;;3.78;0.80;;;18.40;99.90;;;;;;5044067;28;20051;-70
2023/07/19 09:51:48;;;;;;;2.05;0.80;;;18.40;99.90;;;;;;5055605;28;20036;-70
2023/07/19 09:54:15;;;;;;;1.27;0.60;;;18.40;99.90;;;;;;5042634;28;20036;-70
2023/07/19 09:56:43;;;;;;;2.38;0.90;;;18.30;99.90;;;;;;5024846;28;20403;-70
2023/07/19 09:59:12;;;;;;;5.88;0.75;;;18.40;99.90;;;;;;5020202;28;20040;-70
2023/07/19 10:01:38;;;;;;;2.40;0.77;;;18.40;99.90;;;;;;5044723;28;20118;-70
2023/07/19 10:04:24;;;;;;;2.50;0.80;;;18.50;99.90;;;;;;5029297;28;20134;-70
2023/07/19 10:07:07;;;;;;;2.75;1.10;;;18.60;99.90;;;;;;5046291;28;20041;-70
2023/07/19 10:09:37;;;;;;;2.63;0.63;;;18.60;99.90;;;;;;5041963;28;20402;-70
2023/07/19 10:12:21;;;;;;;5.05;0.93;;;18.70;99.90;;;;;;5021030;28;20083;-70
2023/07/19 10:15:07;;;;;;;2.90;0.80;;;18.90;99.90;;;;;;5043453;28;20029;-70
2023/07/19 10:17:41;;;;;;;5.47;0.90;;;19.00;99.90;;;;;;5072057;28;20041;-70
2023/07/19 10:20:07;;;;;;;1.70;0.60;;;19.00;99.90;;;;;;5039440;28;20509;-70
2023/07/19 10:22:53;;;;;;;1.60;0.88;;;19.10;99.90;;;;;;5072235;28;20424;-70
2023/07/19 10:25:25;;;;;;;2.42;0.98;;;19.10;99.90;;;;;;5073624;28;20482;-70
2023/07/19 10:28:03;;;;;;;3.70;0.80;;;19.10;99.90;;;;;;5042422;28;20041;-69
2023/07/19 10:30:49;;;;;;;1.90;0.73;;;19.20;99.90;;;;;;5043671;28;20546;-70
2023/07/19 10:33:23;;;;;;;2.40;0.88;;;19.20;99.90;;;;;;5036921;28;20076;-70
2023/07/19 10:36:09;;;;;;;1.50;0.70;;;19.30;99.90;;;;;;5043800;28;20037;-70
2023/07/19 10:38:36;;;;;;;1.50;0.70;;;19.40;99.90;;;;;;5036719;28;20212;-70
2023/07/19 10:41:04;;;;;;;1.85;0.80;;;19.50;99.90;;;;;;5044314;28;20060;-70
2023/07/19 10:43:31;;;;;;;3.22;0.70;;;19.50;99.90;;;;;;5037736;28;20501;-71
2023/07/19 10:46:03;;;;;;;2.25;0.68;;;19.50;99.90;;;;;;5039537;28;20052;-70
2023/07/19 10:48:32;;;;;;;4.32;0.93;;;19.40;99.90;;;;;;5066734;28;20044;-70
2023/07/19 10:51:03;;;;;;;1.33;0.63;;;19.30;99.90;;;;;;5041164;28;20041;-70
2023/07/19 10:53:30;;;;;;;4.13;0.90;;;19.20;99.90;;;;;;5038596;28;20045;-70
2023/07/19 10:55:58;;;;;;;4.28;0.98;;;19.00;99.90;;;;;;5038753;28;20044;-71
2023/07/19 10:58:24;;;;;;;2.72;0.95;;;18.90;99.90;;;;;;5054712;28;20051;-71
2023/07/19 11:00:56;;;;;;;2.97;0.82;;;18.70;99.90;;;;;;5038303;28;20029;-71
2023/07/19 11:03:24;;;;;;;3.15;1.05;;;18.40;99.90;;;;;;5038192;28;20045;-71
2023/07/19 11:05:51;;;;;;;4.32;1.23;;;18.20;99.90;;;;;;5029093;28;20045;-68
2023/07/19 11:08:20;;;;;;;3.65;1.50;;;17.90;99.90;;;;;;5009993;28;20033;-70
2023/07/19 11:10:47;;;;;;;2.53;1.05;;;17.70;99.90;;;;;;5034632;28;20040;-71
2023/07/19 11:13:13;;;;;;;1.90;0.68;;;17.60;99.90;;;;;;5028915;28;20321;-70
2023/07/19 11:15:47;;;;;;;3.25;1.00;;;17.60;99.90;;;;;;5034809;28;20182;-70
2023/07/19 11:18:12;;;;;;;3.08;1.02;;;17.60;99.90;;;;;;5059009;28;20120;-70
2023/07/19 11:20:39;;;;;;;1.90;0.88;;;17.60;99.90;;;;;;5045972;28;20123;-70
2023/07/19 11:23:09;;;;;;;1.40;0.80;;;17.60;99.90;;;;;;5043661;28;20052;-70
2023/07/19 11:25:35;;;;;;;1.80;0.90;;;17.70;99.90;;;;;;5041771;28;20056;-70
2023/07/19 11:28:01;;;;;;;2.10;0.82;;;17.80;99.90;;;;;;5041495;28;20124;-70
2023/07/19 11:30:40;;;;;;;2.00;0.90;;;17.80;99.90;;;;;;5045742;28;20119;-70
2023/07/19 11:33:09;;;;;;;1.63;0.80;;;17.90;99.90;;;;;;5045860;28;20548;-70
2023/07/19 11:35:35;;;;;;;4.97;1.10;;;18.10;99.90;;;;;;5047839;28;20040;-70
2023/07/19 11:38:01;;;;;;;2.15;1.10;;;18.10;99.90;;;;;;5047115;28;20120;-70
2023/07/19 11:40:27;;;;;;;2.55;1.25;;;18.30;99.90;;;;;;5030307;28;20040;-70
2023/07/19 11:42:56;;;;;;;4.55;1.33;;;18.40;99.90;;;;;;5047514;28;21091;-70
2023/07/19 11:45:26;;;;;;;2.95;1.40;;;18.40;99.90;;;;;;5042714;28;20060;-70
2023/07/19 11:47:58;;;;;;;3.75;1.25;;;18.40;99.90;;;;;;5046162;28;20033;-70
2023/07/19 11:50:24;;;;;;;3.30;1.42;;;18.50;99.90;;;;;;5046499;28;20572;-70
2023/07/19 11:52:54;;;;;;;5.25;1.45;;;18.40;99.90;;;;;;5045553;28;20029;-70
2023/07/19 11:55:20;;;;;;;5.13;1.60;;;18.40;99.90;;;;;;5047460;28;20099;-70
2023/07/19 11:57:48;;;;;;;2.80;1.35;;;18.30;99.90;;;;;;5045661;28;20083;-70
2023/07/19 12:00:17;;;;;;;4.18;1.20;;;18.30;99.90;;;;;;5046534;28;20072;-70
2023/07/19 12:02:44;;;;;;;6.38;1.60;;;18.20;99.90;;;;;;5048179;28;20438;-70
2023/07/19 12:05:11;;;;;;;2.67;1.35;;;18.20;99.90;;;;;;5046279;28;20033;-70
2023/07/19 12:07:37;;;;;;;2.95;1.33;;;18.20;99.90;;;;;;5046921;28;20463;-70
2023/07/19 12:10:04;;;;;;;3.33;1.40;;;18.20;99.90;;;;;;5048724;28;20094;-70
2023/07/19 12:12:33;;;;;;;3.22;1.65;;;18.20;99.90;;;;;;5033109;28;20103;-72
2023/07/19 12:15:06;;;;;;;3.08;1.58;;;18.20;99.90;;;;;;5036344;28;20118;-70
2023/07/19 12:17:33;;;;;;;7.80;1.80;;;18.20;99.90;;;;;;5042550;28;20037;-70
2023/07/19 12:19:59;;;;;;;3.97;1.60;;;18.30;99.90;;;;;;5018384;28;20053;-70
2023/07/19 12:22:28;;;;;;;3.83;1.60;;;18.30;99.90;;;;;;5035614;28;20041;-70
2023/07/19 12:24:55;;;;;;;6.00;1.92;;;18.40;99.90;;;;;;5041351;28;20098;-71
2023/07/19 12:27:21;;;;;;;2.90;1.42;;;18.50;99.90;;;;;;5039831;28;20513;-71
2023/07/19 12:29:48;;;;;;;4.60;2.03;;;18.60;99.90;;;;;;5070279;28;20045;-71
2023/07/19 12:32:14;;;;;;;4.22;1.50;;;18.60;99.90;;;;;;5037482;28;20039;-71
2023/07/19 12:34:41;;;;;;;3.50;1.67;;;18.70;99.90;;;;;;5019475;28;20128;-71
2023/07/19 12:37:07;;;;;;;4.57;1.80;;;18.70;99.90;;;;;;5070230;28;20048;-71
2023/07/19 12:39:32;;;;;;;4.63;2.00;;;18.70;99.90;;;;;;5042989;28;20047;-71
2023/07/19 12:41:58;;;;;;;4.90;1.73;;;18.80;99.90;;;;;;5037866;28;20029;-71
2023/07/19 12:44:24;;;;;;;3.35;1.52;;;18.80;99.90;;;;;;5038214;28;20033;-71
2023/07/19 12:46:50;;;;;;;3.60;1.58;;;18.80;99.90;;;;;;5039278;28;20451;-71